sensor_id;sensor_type;location;lat;lon;timestamp;pressure;altitude;pressure_sealevel;temperature;humidity
80139;BME280;69467;59.842;17.604;2023-07-09T00:00:46;101716.34;;;17.30;75.52
80139;BME280;69467;59.842;17.604;2023-07-09T00:03:14;101712.75;;;17.30;75.67
80139;BME280;69467;59.842;17.604;2023-07-09T00:05:41;101709.69;;;17.31;75.54
80139;BME280;69467;59.842;17.604;2023-07-09T00:08:27;101714.94;;;17.33;75.45
80139;BME280;69467;59.842;17.604;2023-07-09T00:10:54;101719.69;;;17.32;75.75
80139;BME280;69467;59.842;17.604;2023-07-09T00:13:21;101713.28;;;17.32;75.04
80139;BME280;69467;59.842;17.604;2023-07-09T00:15:47;101716.63;;;17.29;75.03
80139;BME280;69467;59.842;17.604;2023-07-09T00:18:13;101714.41;;;17.26;75.27
80139;BME280;69467;59.842;17.604;2023-07-09T00:20:38;101717.22;;;17.20;75.67
80139;BME280;69467;59.842;17.604;2023-07-09T00:23:03;101715.03;;;17.12;75.96
80139;BME280;69467;59.842;17.604;2023-07-09T00:25:29;101717.81;;;17.07;76.30
80139;BME280;69467;59.842;17.604;2023-07-09T00:27:55;101716.72;;;17.03;76.45
80139;BME280;69467;59.842;17.604;2023-07-09T00:30:21;101719.22;;;16.99;76.68
80139;BME280;69467;59.842;17.604;2023-07-09T00:32:48;101716.47;;;16.94;76.21
80139;BME280;69467;59.842;17.604;2023-07-09T00:35:14;101719.75;;;16.91;76.83
80139;BME280;69467;59.842;17.604;2023-07-09T00:37:41;101710.09;;;16.88;76.73
80139;BME280;69467;59.842;17.604;2023-07-09T00:40:14;101712.03;;;16.88;76.88
80139;BME280;69467;59.842;17.604;2023-07-09T00:42:44;101720.59;;;16.86;77.05
80139;BME280;69467;59.842;17.604;2023-07-09T00:45:19;101719.78;;;16.86;77.59
80139;BME280;69467;59.842;17.604;2023-07-09T00:47:58;101711.78;;;16.84;77.45
80139;BME280;69467;59.842;17.604;2023-07-09T00:53:30;101705.97;;;16.76;77.61
80139;BME280;69467;59.842;17.604;2023-07-09T00:55:59;101717.59;;;16.72;77.30
80139;BME280;69467;59.842;17.604;2023-07-09T00:58:29;101715.13;;;16.71;77.45
80139;BME280;69467;59.842;17.604;2023-07-09T01:01:00;101717.34;;;16.64;78.09
80139;BME280;69467;59.842;17.604;2023-07-09T01:03:42;101714.00;;;16.62;77.91
80139;BME280;69467;59.842;17.604;2023-07-09T01:06:10;101724.78;;;16.58;77.97
80139;BME280;69467;59.842;17.604;2023-07-09T01:08:39;101725.66;;;16.53;78.06
80139;BME280;69467;59.842;17.604;2023-07-09T01:11:21;101718.75;;;16.51;78.36
80139;BME280;69467;59.842;17.604;2023-07-09T01:13:49;101725.38;;;16.50;78.50
80139;BME280;69467;59.842;17.604;2023-07-09T01:16:17;101727.56;;;16.48;78.80
80139;BME280;69467;59.842;17.604;2023-07-09T01:18:42;101721.22;;;16.47;78.53
80139;BME280;69467;59.842;17.604;2023-07-09T01:21:10;101719.56;;;16.46;78.60
80139;BME280;69467;59.842;17.604;2023-07-09T01:23:44;101720.97;;;16.44;78.71
80139;BME280;69467;59.842;17.604;2023-07-09T01:26:11;101726.22;;;16.40;78.69
80139;BME280;69467;59.842;17.604;2023-07-09T01:28:38;101726.75;;;16.37;78.71
80139;BME280;69467;59.842;17.604;2023-07-09T01:31:08;101724.56;;;16.34;78.57
80139;BME280;69467;59.842;17.604;2023-07-09T01:33:33;101726.75;;;16.26;79.50
80139;BME280;69467;59.842;17.604;2023-07-09T01:35:58;101726.75;;;16.21;80.20
80139;BME280;69467;59.842;17.604;2023-07-09T01:38:29;101731.19;;;16.22;79.44
80139;BME280;69467;59.842;17.604;2023-07-09T01:40:57;101731.19;;;16.22;79.58
80139;BME280;69467;59.842;17.604;2023-07-09T01:43:23;101731.72;;;16.19;79.71
80139;BME280;69467;59.842;17.604;2023-07-09T01:45:50;101732.56;;;16.20;80.13
80139;BME280;69467;59.842;17.604;2023-07-09T01:48:17;101727.84;;;16.20;80.38
80139;BME280;69467;59.842;17.604;2023-07-09T01:50:46;101730.63;;;16.20;80.53
80139;BME280;69467;59.842;17.604;2023-07-09T01:53:16;101725.66;;;16.22;80.34
80139;BME280;69467;59.842;17.604;2023-07-09T01:55:42;101728.97;;;16.19;80.28
80139;BME280;69467;59.842;17.604;2023-07-09T01:58:07;101724.81;;;16.17;79.64
80139;BME280;69467;59.842;17.604;2023-07-09T02:00:34;101732.28;;;16.16;80.01
80139;BME280;69467;59.842;17.604;2023-07-09T02:03:00;101730.06;;;16.13;80.02
80139;BME280;69467;59.842;17.604;2023-07-09T02:05:28;101735.88;;;16.12;80.63
80139;BME280;69467;59.842;17.604;2023-07-09T02:07:54;101727.28;;;16.08;80.70
80139;BME280;69467;59.842;17.604;2023-07-09T02:10:20;101734.50;;;16.04;80.74
80139;BME280;69467;59.842;17.604;2023-07-09T02:12:46;101738.34;;;16.03;80.87
80139;BME280;69467;59.842;17.604;2023-07-09T02:15:12;101735.31;;;15.99;81.11
80139;BME280;69467;59.842;17.604;2023-07-09T02:17:37;101741.09;;;15.98;80.72
80139;BME280;69467;59.842;17.604;2023-07-09T02:20:03;101738.59;;;15.96;80.93
80139;BME280;69467;59.842;17.604;2023-07-09T02:22:30;101745.22;;;15.95;80.99
80139;BME280;69467;59.842;17.604;2023-07-09T02:24:56;101744.97;;;15.91;81.81
80139;BME280;69467;59.842;17.604;2023-07-09T02:27:21;101746.31;;;15.89;80.83
80139;BME280;69467;59.842;17.604;2023-07-09T02:29:47;101748.25;;;15.88;81.68
80139;BME280;69467;59.842;17.604;2023-07-09T02:32:16;101743.53;;;15.84;81.26
80139;BME280;69467;59.842;17.604;2023-07-09T02:34:42;101745.75;;;15.82;81.65
80139;BME280;69467;59.842;17.604;2023-07-09T02:37:07;101750.97;;;15.78;82.04
80139;BME280;69467;59.842;17.604;2023-07-09T02:39:33;101746.84;;;15.75;81.30
80139;BME280;69467;59.842;17.604;2023-07-09T02:41:58;101758.13;;;15.74;81.91
80139;BME280;69467;59.842;17.604;2023-07-09T02:44:24;101755.94;;;15.71;82.49
80139;BME280;69467;59.842;17.604;2023-07-09T02:46:49;101753.69;;;15.68;81.86
80139;BME280;69467;59.842;17.604;2023-07-09T02:49:15;101746.50;;;15.67;81.99
80139;BME280;69467;59.842;17.604;2023-07-09T02:51:41;101746.50;;;15.67;82.61
80139;BME280;69467;59.842;17.604;2023-07-09T02:54:07;101742.94;;;15.66;82.36
80139;BME280;69467;59.842;17.604;2023-07-09T02:56:32;101753.41;;;15.64;82.72
80139;BME280;69467;59.842;17.604;2023-07-09T02:58:58;101750.91;;;15.62;82.69
80139;BME280;69467;59.842;17.604;2023-07-09T03:01:24;101752.59;;;15.64;83.35
80139;BME280;69467;59.842;17.604;2023-07-09T03:03:55;101750.91;;;15.62;83.42
80139;BME280;69467;59.842;17.604;2023-07-09T03:06:22;101750.63;;;15.59;83.97
80139;BME280;69467;59.842;17.604;2023-07-09T03:08:48;101749.81;;;15.58;83.73
80139;BME280;69467;59.842;17.604;2023-07-09T03:11:14;101743.72;;;15.56;83.29
80139;BME280;69467;59.842;17.604;2023-07-09T03:13:40;101746.47;;;15.56;83.70
80139;BME280;69467;59.842;17.604;2023-07-09T03:16:05;101746.47;;;15.56;83.10
80139;BME280;69467;59.842;17.604;2023-07-09T03:18:31;101741.81;;;15.57;83.84
80139;BME280;69467;59.842;17.604;2023-07-09T03:20:57;101742.91;;;15.56;83.32
80139;BME280;69467;59.842;17.604;2023-07-09T03:23:22;101743.72;;;15.56;83.97
80139;BME280;69467;59.842;17.604;2023-07-09T03:25:47;101740.13;;;15.56;82.84
80139;BME280;69467;59.842;17.604;2023-07-09T03:28:13;101746.47;;;15.56;83.18
80139;BME280;69467;59.842;17.604;2023-07-09T03:30:43;101743.16;;;15.54;83.83
80139;BME280;69467;59.842;17.604;2023-07-09T03:33:10;101749.53;;;15.55;84.03
80139;BME280;69467;59.842;17.604;2023-07-09T03:35:36;101755.31;;;15.53;84.37
80139;BME280;69467;59.842;17.604;2023-07-09T03:38:04;101749.22;;;15.51;83.91
80139;BME280;69467;59.842;17.604;2023-07-09T03:40:29;101753.91;;;15.51;84.09
80139;BME280;69467;59.842;17.604;2023-07-09T03:42:54;101757.50;;;15.51;84.70
80139;BME280;69467;59.842;17.604;2023-07-09T03:45:20;101764.69;;;15.52;84.75
80139;BME280;69467;59.842;17.604;2023-07-09T03:47:45;101763.59;;;15.53;84.33
80139;BME280;69467;59.842;17.604;2023-07-09T03:50:11;101763.59;;;15.53;84.74
80139;BME280;69467;59.842;17.604;2023-07-09T03:52:37;101757.25;;;15.58;84.75
80139;BME280;69467;59.842;17.604;2023-07-09T03:55:02;101759.72;;;15.54;84.83
80139;BME280;69467;59.842;17.604;2023-07-09T03:57:30;101761.41;;;15.60;84.84
80139;BME280;69467;59.842;17.604;2023-07-09T03:59:56;101759.22;;;15.68;84.63
80139;BME280;69467;59.842;17.604;2023-07-09T04:02:21;101760.88;;;15.64;84.45
80139;BME280;69467;59.842;17.604;2023-07-09T04:04:46;101766.97;;;15.66;84.73
80139;BME280;69467;59.842;17.604;2023-07-09T04:07:12;101761.72;;;15.69;85.80
80139;BME280;69467;59.842;17.604;2023-07-09T04:09:38;101765.03;;;15.71;84.59
80139;BME280;69467;59.842;17.604;2023-07-09T04:12:03;101764.75;;;15.73;84.92
80139;BME280;69467;59.842;17.604;2023-07-09T04:14:29;101758.69;;;15.76;85.26
80139;BME280;69467;59.842;17.604;2023-07-09T04:16:54;101766.41;;;15.79;85.04
80139;BME280;69467;59.842;17.604;2023-07-09T04:19:19;101766.19;;;15.81;85.60
80139;BME280;69467;59.842;17.604;2023-07-09T04:21:45;101770.91;;;15.85;85.21
80139;BME280;69467;59.842;17.604;2023-07-09T04:24:10;101772.84;;;15.90;85.20
80139;BME280;69467;59.842;17.604;2023-07-09T04:26:36;101770.66;;;15.92;85.05
80139;BME280;69467;59.842;17.604;2023-07-09T04:29:04;101780.88;;;15.97;85.65
80139;BME280;69467;59.842;17.604;2023-07-09T04:31:30;101774.25;;;15.98;85.34
80139;BME280;69467;59.842;17.604;2023-07-09T04:33:55;101776.47;;;16.01;85.14
80139;BME280;69467;59.842;17.604;2023-07-09T04:36:21;101771.78;;;16.06;84.93
80139;BME280;69467;59.842;17.604;2023-07-09T04:38:46;101780.91;;;16.12;86.16
80139;BME280;69467;59.842;17.604;2023-07-09T04:41:12;101773.47;;;16.18;85.11
80139;BME280;69467;59.842;17.604;2023-07-09T04:43:37;101777.03;;;16.23;84.61
80139;BME280;69467;59.842;17.604;2023-07-09T04:46:02;101778.72;;;16.30;84.31
80139;BME280;69467;59.842;17.604;2023-07-09T04:48:28;101783.41;;;16.34;84.64
80139;BME280;69467;59.842;17.604;2023-07-09T04:50:53;101788.69;;;16.41;84.34
80139;BME280;69467;59.842;17.604;2023-07-09T04:53:18;101779.31;;;16.47;84.41
80139;BME280;69467;59.842;17.604;2023-07-09T04:55:44;101778.19;;;16.53;84.08
80139;BME280;69467;59.842;17.604;2023-07-09T04:58:09;101785.38;;;16.60;83.90
80139;BME280;69467;59.842;17.604;2023-07-09T05:00:34;101788.13;;;16.65;83.98
80139;BME280;69467;59.842;17.604;2023-07-09T05:03:00;101786.19;;;16.70;83.63
80139;BME280;69467;59.842;17.604;2023-07-09T05:05:25;101791.19;;;16.73;84.11
80139;BME280;69467;59.842;17.604;2023-07-09T05:07:50;101790.06;;;16.80;83.51
80139;BME280;69467;59.842;17.604;2023-07-09T05:10:16;101796.16;;;16.87;83.98
80139;BME280;69467;59.842;17.604;2023-07-09T05:12:49;101796.72;;;16.94;83.68
80139;BME280;69467;59.842;17.604;2023-07-09T05:15:16;101797.28;;;17.01;84.15
80139;BME280;69467;59.842;17.604;2023-07-09T05:17:41;101810.53;;;17.10;83.44
80139;BME280;69467;59.842;17.604;2023-07-09T05:20:07;101806.38;;;17.17;83.56
80139;BME280;69467;59.842;17.604;2023-07-09T05:22:32;101805.25;;;17.24;83.73
80139;BME280;69467;59.842;17.604;2023-07-09T05:24:58;101808.53;;;17.31;84.04
80139;BME280;69467;59.842;17.604;2023-07-09T05:27:23;101814.31;;;17.39;83.36
80139;BME280;69467;59.842;17.604;2023-07-09T05:29:48;101807.66;;;17.46;82.46
80139;BME280;69467;59.842;17.604;2023-07-09T05:32:13;101815.09;;;17.55;82.33
80139;BME280;69467;59.842;17.604;2023-07-09T05:34:39;101807.31;;;17.63;81.33
80139;BME280;69467;59.842;17.604;2023-07-09T05:37:04;101813.38;;;17.70;80.80
80139;BME280;69467;59.842;17.604;2023-07-09T05:39:29;101812.25;;;17.76;81.32
80139;BME280;69467;59.842;17.604;2023-07-09T05:41:55;101810.56;;;17.85;81.00
80139;BME280;69467;59.842;17.604;2023-07-09T05:44:20;101812.44;;;17.90;80.22
80139;BME280;69467;59.842;17.604;2023-07-09T05:46:46;101814.97;;;17.97;79.73
80139;BME280;69467;59.842;17.604;2023-07-09T05:49:11;101817.41;;;18.03;78.73
80139;BME280;69467;59.842;17.604;2023-07-09T05:51:36;101818.22;;;18.09;79.16
80139;BME280;69467;59.842;17.604;2023-07-09T05:54:02;101820.41;;;18.17;79.18
80139;BME280;69467;59.842;17.604;2023-07-09T05:56:27;101818.66;;;18.27;78.57
80139;BME280;69467;59.842;17.604;2023-07-09T05:58:53;101821.13;;;18.33;77.78
80139;BME280;69467;59.842;17.604;2023-07-09T06:01:19;101815.25;;;18.40;76.72
80139;BME280;69467;59.842;17.604;2023-07-09T06:03:45;101812.41;;;18.45;76.09
80139;BME280;69467;59.842;17.604;2023-07-09T06:06:11;101816.56;;;18.48;74.62
80139;BME280;69467;59.842;17.604;2023-07-09T06:08:37;101815.69;;;18.53;74.46
80139;BME280;69467;59.842;17.604;2023-07-09T06:11:03;101812.84;;;18.63;73.07
80139;BME280;69467;59.842;17.604;2023-07-09T06:13:30;101821.03;;;18.78;73.05
80139;BME280;69467;59.842;17.604;2023-07-09T06:15:56;101811.47;;;18.95;72.39
80139;BME280;69467;59.842;17.604;2023-07-09T06:18:23;101817.41;;;19.12;71.01
80139;BME280;69467;59.842;17.604;2023-07-09T06:20:54;101814.53;;;19.23;69.54
80139;BME280;69467;59.842;17.604;2023-07-09T06:23:20;101822.97;;;19.37;68.95
80139;BME280;69467;59.842;17.604;2023-07-09T06:25:45;101810.69;;;19.43;67.66
80139;BME280;69467;59.842;17.604;2023-07-09T06:28:23;101814.75;;;19.51;67.83
80139;BME280;69467;59.842;17.604;2023-07-09T06:30:49;101818.56;;;19.60;67.44
80139;BME280;69467;59.842;17.604;2023-07-09T06:33:15;101811.81;;;19.66;66.49
80139;BME280;69467;59.842;17.604;2023-07-09T06:35:49;101815.06;;;19.73;66.43
80139;BME280;69467;59.842;17.604;2023-07-09T06:38:15;101816.03;;;19.83;66.23
80139;BME280;69467;59.842;17.604;2023-07-09T06:40:40;101812.94;;;19.89;65.38
80139;BME280;69467;59.842;17.604;2023-07-09T06:43:06;101817.59;;;19.94;65.84
80139;BME280;69467;59.842;17.604;2023-07-09T06:45:31;101816.69;;;19.99;64.92
80139;BME280;69467;59.842;17.604;2023-07-09T06:47:57;101814.66;;;20.04;65.36
80139;BME280;69467;59.842;17.604;2023-07-09T06:50:23;101810.69;;;20.10;64.14
80139;BME280;69467;59.842;17.604;2023-07-09T06:52:48;101813.06;;;20.17;64.56
80139;BME280;69467;59.842;17.604;2023-07-09T06:55:13;101809.72;;;20.20;64.56
80139;BME280;69467;59.842;17.604;2023-07-09T06:57:39;101816.31;;;20.24;63.87
80139;BME280;69467;59.842;17.604;2023-07-09T07:00:04;101810.97;;;20.28;62.97
80139;BME280;69467;59.842;17.604;2023-07-09T07:02:30;101812.53;;;20.34;63.88
80139;BME280;69467;59.842;17.604;2023-07-09T07:04:55;101821.19;;;20.33;61.75
80139;BME280;69467;59.842;17.604;2023-07-09T07:07:20;101813.44;;;20.30;61.48
80139;BME280;69467;59.842;17.604;2023-07-09T07:09:46;101819.78;;;20.35;62.06
80139;BME280;69467;59.842;17.604;2023-07-09T07:12:22;101810.00;;;20.38;62.58
80139;BME280;69467;59.842;17.604;2023-07-09T07:14:48;101815.09;;;20.50;63.52
80139;BME280;69467;59.842;17.604;2023-07-09T07:17:13;101824.94;;;20.61;62.82
80139;BME280;69467;59.842;17.604;2023-07-09T07:19:39;101814.84;;;20.65;61.70
80139;BME280;69467;59.842;17.604;2023-07-09T07:22:05;101820.06;;;20.72;62.06
80139;BME280;69467;59.842;17.604;2023-07-09T07:24:32;101815.66;;;20.85;62.41
80139;BME280;69467;59.842;17.604;2023-07-09T07:26:57;101826.91;;;20.94;61.48
80139;BME280;69467;59.842;17.604;2023-07-09T07:29:23;101816.72;;;21.03;61.34
80139;BME280;69467;59.842;17.604;2023-07-09T07:31:48;101819.09;;;21.10;60.75
80139;BME280;69467;59.842;17.604;2023-07-09T07:34:13;101820.34;;;21.17;60.57
80139;BME280;69467;59.842;17.604;2023-07-09T07:36:39;101833.88;;;21.24;60.36
80139;BME280;69467;59.842;17.604;2023-07-09T07:39:04;101822.53;;;21.34;60.39
80139;BME280;69467;59.842;17.604;2023-07-09T07:41:30;101825.72;;;21.42;60.46
80139;BME280;69467;59.842;17.604;2023-07-09T07:43:55;101830.28;;;21.51;61.13
80139;BME280;69467;59.842;17.604;2023-07-09T07:46:20;101828.31;;;21.52;59.53
80139;BME280;69467;59.842;17.604;2023-07-09T07:48:46;101831.75;;;21.63;60.36
80139;BME280;69467;59.842;17.604;2023-07-09T07:51:11;101827.72;;;21.69;59.23
80139;BME280;69467;59.842;17.604;2023-07-09T07:53:38;101836.50;;;21.76;59.71
80139;BME280;69467;59.842;17.604;2023-07-09T07:56:04;101826.16;;;21.91;59.34
80139;BME280;69467;59.842;17.604;2023-07-09T07:58:30;101837.31;;;21.77;59.46
80139;BME280;69467;59.842;17.604;2023-07-09T08:00:56;101838.00;;;21.96;58.43
80139;BME280;69467;59.842;17.604;2023-07-09T08:03:22;101837.03;;;22.15;59.91
80139;BME280;69467;59.842;17.604;2023-07-09T08:05:51;101835.03;;;22.29;58.51
80139;BME280;69467;59.842;17.604;2023-07-09T08:08:17;101833.56;;;22.09;57.77
80139;BME280;69467;59.842;17.604;2023-07-09T08:10:42;101832.63;;;22.00;57.34
80139;BME280;69467;59.842;17.604;2023-07-09T08:13:08;101835.28;;;22.19;58.17
80139;BME280;69467;59.842;17.604;2023-07-09T08:15:34;101831.22;;;22.39;58.06
80139;BME280;69467;59.842;17.604;2023-07-09T08:17:59;101839.84;;;22.74;57.08
80139;BME280;69467;59.842;17.604;2023-07-09T08:20:25;101841.28;;;22.94;57.98
80139;BME280;69467;59.842;17.604;2023-07-09T08:22:50;101847.78;;;23.12;56.87
80139;BME280;69467;59.842;17.604;2023-07-09T08:25:16;101849.03;;;22.97;56.77
80139;BME280;69467;59.842;17.604;2023-07-09T08:27:41;101841.69;;;22.79;56.53
80139;BME280;69467;59.842;17.604;2023-07-09T08:30:07;101835.44;;;23.05;55.61
80139;BME280;69467;59.842;17.604;2023-07-09T08:32:32;101844.03;;;22.63;56.67
80139;BME280;69467;59.842;17.604;2023-07-09T08:34:58;101845.13;;;22.76;56.30
80139;BME280;69467;59.842;17.604;2023-07-09T08:37:23;101844.38;;;23.15;55.01
80139;BME280;69467;59.842;17.604;2023-07-09T08:39:49;101831.97;;;23.30;54.42
80139;BME280;69467;59.842;17.604;2023-07-09T08:42:23;101838.34;;;23.62;54.23
80139;BME280;69467;59.842;17.604;2023-07-09T08:50:36;101837.63;;;24.32;53.39
80139;BME280;69467;59.842;17.604;2023-07-09T08:53:04;101836.81;;;24.49;52.27
80139;BME280;69467;59.842;17.604;2023-07-09T08:55:31;101842.41;;;24.49;52.77
80139;BME280;69467;59.842;17.604;2023-07-09T08:58:11;101832.84;;;24.76;52.09
80139;BME280;69467;59.842;17.604;2023-07-09T09:00:54;101834.13;;;25.05;49.80
80139;BME280;69467;59.842;17.604;2023-07-09T09:03:44;101842.81;;;25.21;50.23
80139;BME280;69467;59.842;17.604;2023-07-09T09:06:16;101826.53;;;25.06;49.41
80139;BME280;69467;59.842;17.604;2023-07-09T09:11:34;101829.91;;;24.38;51.64
80139;BME280;69467;59.842;17.604;2023-07-09T09:14:16;101823.16;;;24.48;51.22
80139;BME280;69467;59.842;17.604;2023-07-09T09:16:45;101825.94;;;24.56;50.45
80139;BME280;69467;59.842;17.604;2023-07-09T09:19:31;101829.41;;;24.44;50.24
80139;BME280;69467;59.842;17.604;2023-07-09T09:22:14;101826.63;;;24.71;49.43
80139;BME280;69467;59.842;17.604;2023-07-09T09:27:14;101841.75;;;24.35;48.91
80139;BME280;69467;59.842;17.604;2023-07-09T09:29:40;101837.97;;;24.57;49.16
80139;BME280;69467;59.842;17.604;2023-07-09T09:32:27;101835.34;;;24.87;48.10
80139;BME280;69467;59.842;17.604;2023-07-09T09:34:53;101832.69;;;24.64;48.89
80139;BME280;69467;59.842;17.604;2023-07-09T09:37:29;101834.16;;;24.97;47.27
80139;BME280;69467;59.842;17.604;2023-07-09T09:39:55;101835.06;;;25.18;46.81
80139;BME280;69467;59.842;17.604;2023-07-09T09:42:23;101838.31;;;25.38;46.08
80139;BME280;69467;59.842;17.604;2023-07-09T09:44:49;101828.66;;;25.56;45.45
80139;BME280;69467;59.842;17.604;2023-07-09T09:47:15;101833.28;;;25.82;44.36
80139;BME280;69467;59.842;17.604;2023-07-09T09:49:41;101831.59;;;25.90;43.14
80139;BME280;69467;59.842;17.604;2023-07-09T09:52:15;101829.16;;;26.10;42.22
80139;BME280;69467;59.842;17.604;2023-07-09T09:54:46;101829.16;;;26.31;44.51
80139;BME280;69467;59.842;17.604;2023-07-09T09:57:19;101823.47;;;26.40;43.14
80139;BME280;69467;59.842;17.604;2023-07-09T09:59:46;101824.63;;;26.60;43.39
80139;BME280;69467;59.842;17.604;2023-07-09T10:02:23;101827.03;;;26.49;43.46
80139;BME280;69467;59.842;17.604;2023-07-09T10:04:50;101827.75;;;26.79;41.49
80139;BME280;69467;59.842;17.604;2023-07-09T10:07:32;101828.06;;;26.44;42.55
80139;BME280;69467;59.842;17.604;2023-07-09T10:09:59;101827.00;;;26.15;43.23
80139;BME280;69467;59.842;17.604;2023-07-09T10:15:12;101828.00;;;26.87;41.85
80139;BME280;69467;59.842;17.604;2023-07-09T10:20:35;101835.47;;;26.28;43.77
80139;BME280;69467;59.842;17.604;2023-07-09T10:23:32;101838.22;;;26.70;42.80
80139;BME280;69467;59.842;17.604;2023-07-09T10:26:24;101834.75;;;26.52;43.04
80139;BME280;69467;59.842;17.604;2023-07-09T10:32:12;101832.25;;;26.38;43.16
80139;BME280;69467;59.842;17.604;2023-07-09T10:39:57;101837.41;;;26.70;42.87
80139;BME280;69467;59.842;17.604;2023-07-09T10:42:30;101839.97;;;26.96;42.29
80139;BME280;69467;59.842;17.604;2023-07-09T10:45:02;101836.72;;;27.19;40.69
80139;BME280;69467;59.842;17.604;2023-07-09T10:48:01;101842.41;;;27.43;40.45
80139;BME280;69467;59.842;17.604;2023-07-09T10:50:35;101836.94;;;27.01;41.44
80139;BME280;69467;59.842;17.604;2023-07-09T10:53:09;101846.59;;;26.79;41.71
80139;BME280;69467;59.842;17.604;2023-07-09T11:00:42;101843.31;;;27.35;39.14
80139;BME280;69467;59.842;17.604;2023-07-09T11:03:15;101848.16;;;27.59;39.18
80139;BME280;69467;59.842;17.604;2023-07-09T11:05:43;101838.88;;;27.84;39.43
80139;BME280;69467;59.842;17.604;2023-07-09T11:08:13;101836.88;;;28.09;38.40
80139;BME280;69467;59.842;17.604;2023-07-09T11:10:53;101837.88;;;28.29;38.25
80139;BME280;69467;59.842;17.604;2023-07-09T11:16:01;101831.38;;;28.69;36.42
80139;BME280;69467;59.842;17.604;2023-07-09T11:18:32;101831.38;;;28.69;37.07
80139;BME280;69467;59.842;17.604;2023-07-09T11:21:15;101828.50;;;28.98;36.34
80139;BME280;69467;59.842;17.604;2023-07-09T11:23:49;101829.25;;;29.11;35.68
80139;BME280;69467;59.842;17.604;2023-07-09T11:26:21;101827.34;;;29.15;35.91
80139;BME280;69467;59.842;17.604;2023-07-09T11:28:51;101825.38;;;29.31;35.75
80139;BME280;69467;59.842;17.604;2023-07-09T11:31:22;101820.53;;;29.48;35.68
80139;BME280;69467;59.842;17.604;2023-07-09T11:33:56;101827.16;;;29.55;34.65
80139;BME280;69467;59.842;17.604;2023-07-09T11:36:26;101825.25;;;29.60;34.83
80139;BME280;69467;59.842;17.604;2023-07-09T11:38:52;101818.41;;;29.61;34.79
80139;BME280;69467;59.842;17.604;2023-07-09T11:44:00;101815.75;;;29.68;35.98
80139;BME280;69467;59.842;17.604;2023-07-09T11:46:26;101808.94;;;29.21;35.46
80139;BME280;69467;59.842;17.604;2023-07-09T11:48:54;101813.50;;;29.58;34.46
80139;BME280;69467;59.842;17.604;2023-07-09T11:51:45;101816.69;;;29.24;36.09
80139;BME280;69467;59.842;17.604;2023-07-09T11:54:11;101807.59;;;28.99;36.54
80139;BME280;69467;59.842;17.604;2023-07-09T11:56:39;101805.03;;;28.78;36.63
80139;BME280;69467;59.842;17.604;2023-07-09T11:59:05;101807.94;;;28.53;37.78
80139;BME280;69467;59.842;17.604;2023-07-09T12:01:43;101810.72;;;28.37;37.78
80139;BME280;69467;59.842;17.604;2023-07-09T12:04:17;101814.69;;;27.95;38.22
80139;BME280;69467;59.842;17.604;2023-07-09T12:06:44;101809.81;;;28.33;38.35
80139;BME280;69467;59.842;17.604;2023-07-09T12:09:18;101811.22;;;28.55;37.54
80139;BME280;69467;59.842;17.604;2023-07-09T12:11:49;101808.81;;;28.69;36.03
80139;BME280;69467;59.842;17.604;2023-07-09T12:14:19;101791.59;;;28.87;35.64
80139;BME280;69467;59.842;17.604;2023-07-09T12:16:48;101794.50;;;29.06;36.46
80139;BME280;69467;59.842;17.604;2023-07-09T12:19:15;101792.47;;;28.91;35.90
80139;BME280;69467;59.842;17.604;2023-07-09T12:21:53;101793.38;;;28.95;35.68
80139;BME280;69467;59.842;17.604;2023-07-09T12:24:24;101795.69;;;28.61;37.07
80139;BME280;69467;59.842;17.604;2023-07-09T12:26:55;101790.34;;;28.27;37.66
80139;BME280;69467;59.842;17.604;2023-07-09T12:29:25;101794.28;;;28.39;37.06
80139;BME280;69467;59.842;17.604;2023-07-09T12:31:51;101802.06;;;27.64;37.50
80139;BME280;69467;59.842;17.604;2023-07-09T12:34:17;101793.84;;;27.71;38.93
80139;BME280;69467;59.842;17.604;2023-07-09T12:36:49;101793.19;;;28.03;39.07
80139;BME280;69467;59.842;17.604;2023-07-09T12:39:24;101804.69;;;28.10;37.30
80139;BME280;69467;59.842;17.604;2023-07-09T12:41:54;101803.31;;;28.32;36.80
80139;BME280;69467;59.842;17.604;2023-07-09T12:44:21;101798.69;;;28.52;35.43
80139;BME280;69467;59.842;17.604;2023-07-09T12:46:48;101797.94;;;28.55;35.45
80139;BME280;69467;59.842;17.604;2023-07-09T12:49:24;101793.53;;;28.01;36.56
80139;BME280;69467;59.842;17.604;2023-07-09T12:51:50;101797.19;;;28.14;36.03
80139;BME280;69467;59.842;17.604;2023-07-09T12:54:18;101784.53;;;28.36;37.21
80139;BME280;69467;59.842;17.604;2023-07-09T12:56:44;101792.69;;;28.54;36.43
80139;BME280;69467;59.842;17.604;2023-07-09T13:04:16;101793.75;;;28.78;36.09
80139;BME280;69467;59.842;17.604;2023-07-09T13:06:42;101795.47;;;28.82;36.65
80139;BME280;69467;59.842;17.604;2023-07-09T13:09:20;101789.38;;;28.80;35.95
80139;BME280;69467;59.842;17.604;2023-07-09T13:11:47;101795.09;;;28.39;36.08
80139;BME280;69467;59.842;17.604;2023-07-09T13:14:30;101794.16;;;28.35;35.53
80139;BME280;69467;59.842;17.604;2023-07-09T13:17:07;101806.66;;;28.22;36.28
80139;BME280;69467;59.842;17.604;2023-07-09T13:19:34;101796.53;;;28.33;35.43
80139;BME280;69467;59.842;17.604;2023-07-09T13:22:00;101797.34;;;28.34;37.34
80139;BME280;69467;59.842;17.604;2023-07-09T13:24:28;101801.09;;;28.38;36.79
80139;BME280;69467;59.842;17.604;2023-07-09T13:26:55;101795.34;;;28.34;36.88
80139;BME280;69467;59.842;17.604;2023-07-09T13:29:23;101801.06;;;28.09;36.36